Time;durP1;ratioP1;P1;durP2;ratioP2;P2;SDS_P1;SDS_P2;PMS_P1;PMS_P2;Temp;Humidity;BMP_temperature;BMP_pressure;BME280_temperature;BME280_humidity;BME280_pressure;Samples;Min_cycle;Max_cycle;Signal;HPM_P1;HPM_P2
2023/10/31 00:00:51;;;;;;;30.67;17.42;;;;;;;8.05;100.00;98598.47;5049298;28;20045;-39
2023/10/31 00:03:18;;;;;;;25.73;16.60;;;;;;;8.04;100.00;98599.66;5049010;28;20053;-43
2023/10/31 00:05:45;;;;;;;29.60;17.88;;;;;;;8.07;100.00;98604.41;5049508;28;20145;-43
2023/10/31 00:08:11;;;;;;;25.02;15.25;;;;;;;8.08;100.00;98603.22;5024252;28;20067;-40
2023/10/31 00:10:38;;;;;;;35.72;17.58;;;;;;;8.03;100.00;98598.84;5048855;28;20033;-41
2023/10/31 00:13:05;;;;;;;26.60;16.52;;;;;;;8.00;100.00;98610.63;5049786;28;20708;-41
2023/10/31 00:15:31;;;;;;;28.38;16.42;;;;;;;7.98;100.00;98612.97;5049184;28;20493;-40
2023/10/31 00:17:58;;;;;;;32.10;19.02;;;;;;;7.95;100.00;98620.03;5049208;28;20041;-41
2023/10/31 00:20:25;;;;;;;29.05;17.08;;;;;;;7.93;100.00;98616.09;5048674;28;20102;-40
2023/10/31 00:22:52;;;;;;;35.08;19.55;;;;;;;7.89;100.00;98616.03;5049204;28;20045;-40
2023/10/31 00:25:19;;;;;;;35.08;19.35;;;;;;;7.93;100.00;98625.16;5049240;28;20048;-40
2023/10/31 00:27:46;;;;;;;28.02;17.15;;;;;;;7.95;100.00;98617.28;5048895;28;20056;-40
2023/10/31 00:30:13;;;;;;;25.45;15.57;;;;;;;8.02;100.00;98622.09;5035569;28;20041;-41
2023/10/31 00:32:40;;;;;;;27.27;18.05;;;;;;;8.04;100.00;98619.72;5048103;28;20439;-40
2023/10/31 00:35:07;;;;;;;34.15;19.75;;;;;;;8.04;100.00;98624.44;5048343;28;20033;-40
2023/10/31 00:37:34;;;;;;;30.90;19.40;;;;;;;8.08;100.00;98628.00;5047951;28;20536;-41
2023/10/31 00:40:01;;;;;;;39.63;19.67;;;;;;;8.10;100.00;98631.97;5048214;28;20037;-40
2023/10/31 00:42:28;;;;;;;46.53;21.73;;;;;;;8.11;100.00;98622.53;5048418;28;20451;-41
2023/10/31 00:44:54;;;;;;;56.17;20.75;;;;;;;8.14;100.00;98627.28;5047681;28;20056;-42
2023/10/31 00:47:21;;;;;;;61.65;24.08;;;;;;;8.17;100.00;98631.25;5048428;28;20049;-40
2023/10/31 00:49:50;;;;;;;87.03;25.83;;;;;;;8.17;100.00;98625.75;5048083;28;20077;-42
2023/10/31 00:52:16;;;;;;;153.15;29.70;;;;;;;8.17;100.00;98625.75;5047941;28;20041;-41
2023/10/31 00:54:43;;;;;;;155.40;30.38;;;;;;;8.16;100.00;98616.69;5039701;28;20038;-40
2023/10/31 00:57:10;;;;;;;204.80;37.05;;;;;;;8.18;100.00;98619.06;5044167;28;20075;-42
2023/10/31 00:59:39;;;;;;;136.55;32.60;;;;;;;8.18;100.00;98616.31;5046918;28;20068;-40
2023/10/31 01:02:05;;;;;;;248.32;39.72;;;;;;;8.19;100.00;98612.38;5047890;28;20037;-40
2023/10/31 01:04:32;;;;;;;187.85;35.05;;;;;;;8.16;100.00;98613.13;5048259;28;20060;-43
2023/10/31 01:06:59;;;;;;;192.48;34.53;;;;;;;8.14;100.00;98613.50;5047950;28;20134;-40
2023/10/31 01:09:26;;;;;;;183.90;32.05;;;;;;;8.16;100.00;98613.13;5047941;28;20045;-41
2023/10/31 01:11:53;;;;;;;161.32;33.45;;;;;;;8.14;100.00;98615.47;5047252;28;20037;-40
2023/10/31 01:14:20;;;;;;;123.40;30.70;;;;;;;8.11;100.00;98619.00;5038485;28;20080;-40
2023/10/31 01:16:47;;;;;;;110.70;29.05;;;;;;;8.12;100.00;98628.84;5044238;28;20072;-40
2023/10/31 01:19:13;;;;;;;126.72;31.02;;;;;;;8.10;100.00;98625.69;5048289;28;20044;-40
2023/10/31 01:21:40;;;;;;;101.97;30.20;;;;;;;8.07;100.00;98626.44;5046972;28;20033;-41
2023/10/31 01:24:08;;;;;;;85.82;24.60;;;;;;;8.03;100.00;98629.16;5047871;28;20041;-41
2023/10/31 01:26:35;;;;;;;61.42;24.15;;;;;;;8.03;100.00;98626.41;5047725;28;20045;-40
2023/10/31 01:29:02;;;;;;;93.38;31.15;;;;;;;8.02;100.00;98624.84;5047973;28;20458;-41
2023/10/31 01:31:29;;;;;;;60.05;23.67;;;;;;;7.98;100.00;98627.56;5048103;28;20033;-39
2023/10/31 01:33:56;;;;;;;55.22;25.13;;;;;;;8.01;100.00;98627.97;5047637;28;20431;-41
2023/10/31 01:36:26;;;;;;;62.95;28.48;;;;;;;8.01;100.00;98627.97;5047290;28;20044;-42
2023/10/31 01:38:53;;;;;;;55.50;24.25;;;;;;;7.99;100.00;98618.09;5047733;28;20036;-39
2023/10/31 01:41:20;;;;;;;55.55;23.73;;;;;;;8.02;100.00;98618.53;5048082;28;20043;-45
2023/10/31 01:43:47;;;;;;;52.35;22.80;;;;;;;7.98;100.00;98616.53;5048121;28;20043;-40
2023/10/31 01:46:13;;;;;;;60.25;23.75;;;;;;;7.99;100.00;98620.84;5047639;28;20040;-40
2023/10/31 01:48:42;;;;;;;72.50;22.15;;;;;;;8.03;100.00;98620.09;5030006;28;20094;-40
2023/10/31 01:51:09;;;;;;;59.63;21.00;;;;;;;8.03;100.00;98620.09;5047585;28;20049;-41
2023/10/31 01:53:37;;;;;;;59.22;21.23;;;;;;;8.07;100.00;98634.72;5047490;28;20041;-40
2023/10/31 01:56:05;;;;;;;72.93;21.17;;;;;;;8.06;100.00;98635.88;5047714;28;20040;-40
2023/10/31 01:58:34;;;;;;;68.65;20.33;;;;;;;8.07;100.00;98649.28;5047848;28;20170;-40
2023/10/31 02:01:01;;;;;;;59.15;20.45;;;;;;;8.08;100.00;98639.03;5047811;28;20491;-43
2023/10/31 02:03:29;;;;;;;47.72;17.65;;;;;;;8.09;100.00;98646.16;5051790;28;20055;-44
2023/10/31 02:05:56;;;;;;;49.78;18.17;;;;;;;8.09;100.00;98646.94;5051908;28;20029;-41
2023/10/31 02:08:25;;;;;;;48.13;16.48;;;;;;;8.11;100.00;98649.31;5051773;28;20048;-40
2023/10/31 02:10:51;;;;;;;48.47;16.98;;;;;;;8.15;100.00;98655.66;5051801;28;20051;-41
2023/10/31 02:13:18;;;;;;;56.92;16.88;;;;;;;8.16;100.00;98652.50;5051594;28;20037;-40
2023/10/31 02:15:45;;;;;;;45.50;15.98;;;;;;;8.20;100.00;98656.09;5051214;28;20106;-42
2023/10/31 02:18:13;;;;;;;47.80;16.65;;;;;;;8.22;100.00;98652.97;5051356;28;20037;-44
2023/10/31 02:20:40;;;;;;;56.80;17.23;;;;;;;8.25;100.00;98657.72;5052095;28;20044;-40
2023/10/31 02:23:07;;;;;;;61.00;17.27;;;;;;;8.29;100.00;98662.09;5051202;28;20041;-40
2023/10/31 02:25:34;;;;;;;54.30;17.98;;;;;;;8.32;100.00;98666.06;5051863;28;20029;-41
2023/10/31 02:28:01;;;;;;;56.75;18.08;;;;;;;8.34;100.00;98666.50;5051109;28;20045;-41
2023/10/31 02:30:30;;;;;;;50.67;15.43;;;;;;;8.34;100.00;98667.28;5050821;28;20154;-40
2023/10/31 02:32:57;;;;;;;45.60;17.30;;;;;;;8.36;100.00;98655.88;5050912;28;20051;-44
2023/10/31 02:35:23;;;;;;;48.80;19.35;;;;;;;8.37;100.00;98663.75;5049779;28;20057;-45
2023/10/31 02:37:50;;;;;;;42.53;18.33;;;;;;;8.39;100.00;98666.16;5049447;28;20079;-41
2023/10/31 02:40:18;;;;;;;48.75;19.52;;;;;;;8.39;100.00;98660.63;5023180;28;20041;-43
2023/10/31 02:42:45;;;;;;;52.38;20.88;;;;;;;8.40;100.00;98656.69;5047793;28;20441;-43
2023/10/31 02:45:12;;;;;;;54.30;22.13;;;;;;;8.41;100.00;98663.78;5050340;28;20071;-41
2023/10/31 02:47:39;;;;;;;47.70;22.13;;;;;;;8.43;100.00;98661.44;5050556;28;20065;-45
2023/10/31 02:50:06;;;;;;;56.53;24.13;;;;;;;8.44;100.00;98674.06;5051058;28;20123;-42
2023/10/31 02:52:33;;;;;;;55.53;22.55;;;;;;;8.46;100.00;98663.44;5049902;28;20060;-41
2023/10/31 02:55:00;;;;;;;48.72;21.77;;;;;;;8.49;100.00;98673.72;5050762;28;20044;-41
2023/10/31 02:57:26;;;;;;;48.10;21.85;;;;;;;8.49;100.00;98671.75;5037377;28;20110;-40
2023/10/31 02:59:53;;;;;;;52.13;21.00;;;;;;;8.51;100.00;98668.59;5050629;28;20099;-41
2023/10/31 03:02:20;;;;;;;56.75;21.58;;;;;;;8.52;100.00;98675.72;5117201;22;20048;-43
2023/10/31 03:04:47;;;;;;;44.88;21.00;;;;;;;8.54;100.00;98670.59;5050307;28;20406;-47
2023/10/31 03:07:14;;;;;;;51.13;20.90;;;;;;;8.55;100.00;98661.16;5050378;28;20044;-43
2023/10/31 03:09:41;;;;;;;54.55;21.05;;;;;;;8.55;100.00;98677.72;5050629;28;20536;-49
2023/10/31 03:12:08;;;;;;;51.92;21.00;;;;;;;8.56;100.00;98682.03;5050206;28;20075;-43
2023/10/31 03:14:35;;;;;;;58.53;21.73;;;;;;;8.58;100.00;98679.69;5058336;28;20044;-45
2023/10/31 03:17:01;;;;;;;60.67;22.52;;;;;;;8.60;100.00;98676.56;5039962;28;20045;-41
2023/10/31 03:19:28;;;;;;;58.33;22.42;;;;;;;8.60;100.00;98677.34;5049714;28;20095;-42
2023/10/31 03:21:55;;;;;;;62.40;22.58;;;;;;;8.61;100.00;98683.63;5049997;28;20047;-42
2023/10/31 03:24:21;;;;;;;57.25;22.30;;;;;;;8.62;100.00;98679.72;5050448;28;20040;-42
2023/10/31 03:26:48;;;;;;;68.38;25.45;;;;;;;8.64;100.00;98686.44;5048832;28;20385;-42
2023/10/31 03:29:15;;;;;;;64.07;23.45;;;;;;;8.67;100.00;98687.63;5050578;28;20694;-46
2023/10/31 03:31:42;;;;;;;55.30;21.73;;;;;;;8.67;100.00;98682.13;5050122;28;20390;-44
2023/10/31 03:34:08;;;;;;;53.67;20.58;;;;;;;8.69;100.00;98677.81;5050024;28;20043;-43
2023/10/31 03:36:35;;;;;;;49.60;21.77;;;;;;;8.70;100.00;98681.34;5049639;28;20433;-42
2023/10/31 03:39:02;;;;;;;47.20;20.77;;;;;;;8.70;100.00;98678.59;5053597;28;20068;-45
2023/10/31 03:41:29;;;;;;;49.67;21.33;;;;;;;8.71;100.00;98680.97;5050049;28;20392;-42
2023/10/31 03:43:55;;;;;;;60.33;21.83;;;;;;;8.71;100.00;98678.19;5062440;28;20406;-41
2023/10/31 03:46:22;;;;;;;38.70;17.73;;;;;;;8.69;100.00;98672.28;5069289;28;20041;-42
2023/10/31 03:48:49;;;;;;;42.75;17.05;;;;;;;8.67;100.00;98671.88;5056612;28;20493;-46
2023/10/31 03:51:16;;;;;;;37.95;17.25;;;;;;;8.64;100.00;98680.91;5036746;28;20414;-42
2023/10/31 03:53:43;;;;;;;41.28;17.00;;;;;;;8.62;100.00;98686.03;5062760;28;20072;-42
2023/10/31 03:56:10;;;;;;;38.92;16.77;;;;;;;8.62;100.00;98685.22;5049636;28;20148;-43
2023/10/31 03:58:37;;;;;;;32.35;14.75;;;;;;;8.61;100.00;98684.44;5063310;28;20070;-43
2023/10/31 04:01:03;;;;;;;32.88;14.10;;;;;;;8.61;100.00;98684.44;5062308;28;20112;-44
2023/10/31 04:03:30;;;;;;;27.95;12.85;;;;;;;8.61;100.00;98681.69;5049484;28;20055;-42
2023/10/31 04:05:57;;;;;;;25.33;13.05;;;;;;;8.61;100.00;98683.63;5049179;28;20119;-43
2023/10/31 04:08:24;;;;;;;27.48;12.43;;;;;;;8.60;100.00;98687.59;5049534;28;20124;-43
2023/10/31 04:10:50;;;;;;;26.10;12.32;;;;;;;8.57;100.00;98689.94;5049430;28;20041;-43
2023/10/31 04:13:17;;;;;;;25.80;11.70;;;;;;;8.55;100.00;98691.50;5049344;28;20043;-43
2023/10/31 04:15:44;;;;;;;19.88;10.35;;;;;;;8.53;100.00;98699.34;5048337;28;20379;-45
2023/10/31 04:18:10;;;;;;;21.02;9.93;;;;;;;8.50;100.00;98706.41;5040763;28;20033;-44
2023/10/31 04:20:37;;;;;;;20.80;9.90;;;;;;;8.49;100.00;98704.03;5056370;28;20036;-42
2023/10/31 04:23:05;;;;;;;19.02;10.32;;;;;;;8.49;100.00;98704.84;5049401;28;20391;-49
2023/10/31 04:25:32;;;;;;;18.40;9.40;;;;;;;8.49;100.00;98713.13;5048847;28;20429;-41
2023/10/31 04:27:59;;;;;;;17.73;9.52;;;;;;;8.50;100.00;98711.13;5048998;28;20690;-43
2023/10/31 04:30:27;;;;;;;20.75;10.43;;;;;;;8.53;100.00;98710.38;5048438;28;20077;-41
2023/10/31 04:32:54;;;;;;;21.02;9.98;;;;;;;8.52;100.00;98701.31;5048609;28;20041;-44
2023/10/31 04:35:21;;;;;;;20.33;10.25;;;;;;;8.56;100.00;98709.63;5030853;28;20052;-42
2023/10/31 04:37:47;;;;;;;27.33;11.60;;;;;;;8.55;100.00;98717.09;5048299;28;20453;-42
2023/10/31 04:40:14;;;;;;;22.80;9.88;;;;;;;8.56;100.00;98720.66;5048716;28;20048;-43
2023/10/31 04:42:41;;;;;;;21.42;11.15;;;;;;;8.57;100.00;98717.53;5047792;28;20036;-41
2023/10/31 04:45:09;;;;;;;18.00;10.50;;;;;;;8.58;100.00;98723.81;5048708;28;20079;-44
2023/10/31 04:47:36;;;;;;;21.50;10.35;;;;;;;8.60;100.00;98721.47;5048298;28;20037;-44
2023/10/31 04:50:03;;;;;;;25.70;11.43;;;;;;;8.60;100.00;98715.16;5029473;28;20372;-45
2023/10/31 04:52:30;;;;;;;22.05;11.45;;;;;;;8.61;100.00;98722.25;5044585;28;20398;-42
2023/10/31 04:54:57;;;;;;;22.38;11.05;;;;;;;8.60;100.00;98720.69;5048160;28;20052;-46
2023/10/31 04:57:24;;;;;;;25.02;12.27;;;;;;;8.59;100.00;98719.88;5047512;28;20032;-42
2023/10/31 04:59:51;;;;;;;28.15;13.82;;;;;;;8.58;100.00;98721.84;5048098;28;20470;-43
2023/10/31 05:02:17;;;;;;;26.95;13.25;;;;;;;8.58;100.00;98726.56;5048109;28;20045;-45
2023/10/31 05:04:45;;;;;;;31.27;13.07;;;;;;;8.60;100.00;98737.22;5048104;28;20144;-42
2023/10/31 05:07:12;;;;;;;33.05;13.93;;;;;;;8.60;100.00;98729.75;5047218;28;20070;-42
2023/10/31 05:09:41;;;;;;;34.75;14.43;;;;;;;8.59;100.00;98736.44;5030540;28;20086;-41
2023/10/31 05:12:12;;;;;;;36.40;15.15;;;;;;;8.59;100.00;98736.44;5047571;28;20064;-45
2023/10/31 05:14:40;;;;;;;38.42;16.50;;;;;;;8.60;100.00;98746.31;5047845;28;20048;-41
2023/10/31 05:17:06;;;;;;;40.42;16.85;;;;;;;8.62;100.00;98745.91;5048008;28;20045;-42
2023/10/31 05:19:33;;;;;;;45.67;17.27;;;;;;;8.60;100.00;98743.56;5047129;28;20498;-44
2023/10/31 05:22:00;;;;;;;44.72;17.10;;;;;;;8.60;100.00;98754.59;5047135;28;20049;-43
2023/10/31 05:24:27;;;;;;;44.10;17.75;;;;;;;8.61;100.00;98750.63;5047924;28;20036;-44
2023/10/31 05:26:53;;;;;;;47.65;17.35;;;;;;;8.63;100.00;98750.28;5047711;28;20063;-49
2023/10/31 05:29:20;;;;;;;39.60;17.35;;;;;;;8.62;100.00;98752.22;5048143;28;20049;-47
2023/10/31 05:31:47;;;;;;;41.50;17.42;;;;;;;8.65;100.00;98754.22;5048183;28;20044;-42
2023/10/31 05:34:14;;;;;;;42.53;18.65;;;;;;;8.65;100.00;98745.16;5047703;28;20128;-48
2023/10/31 05:36:40;;;;;;;38.65;17.10;;;;;;;8.63;100.00;98747.50;5047104;28;20045;-48
2023/10/31 05:39:08;;;;;;;42.85;16.05;;;;;;;8.63;100.00;98756.56;5047641;28;20044;-42
2023/10/31 05:41:35;;;;;;;35.30;16.08;;;;;;;8.63;100.00;98756.56;5048250;28;20049;-42
2023/10/31 05:44:02;;;;;;;34.58;14.35;;;;;;;8.66;100.00;98764.06;5047600;28;20064;-42
2023/10/31 05:46:29;;;;;;;33.47;14.85;;;;;;;8.67;100.00;98762.91;5055508;28;20048;-42
2023/10/31 05:48:55;;;;;;;32.55;15.02;;;;;;;8.67;100.00;98759.34;5052367;28;20091;-41
2023/10/31 05:51:25;;;;;;;38.15;14.65;;;;;;;8.70;100.00;98770.44;5047950;28;20041;-45
2023/10/31 05:53:52;;;;;;;28.50;13.82;;;;;;;8.71;100.00;98766.47;5047509;28;20402;-42
2023/10/31 05:56:18;;;;;;;33.55;15.13;;;;;;;8.74;100.00;98770.44;5040345;28;20045;-43
2023/10/31 05:58:45;;;;;;;35.08;15.80;;;;;;;8.75;100.00;98772.84;5042931;28;20071;-42
2023/10/31 06:01:12;;;;;;;32.05;14.73;;;;;;;8.77;100.00;98775.19;5047840;28;20045;-48
2023/10/31 06:03:46;;;;;;;30.00;15.10;;;;;;;8.77;100.00;98784.28;5047566;28;20045;-43
2023/10/31 06:06:13;;;;;;;28.73;14.10;;;;;;;8.78;100.00;98782.31;5046814;28;20045;-43
2023/10/31 06:08:41;;;;;;;30.23;14.70;;;;;;;8.79;100.00;98783.91;5048219;28;20033;-43
2023/10/31 06:11:08;;;;;;;36.90;15.57;;;;;;;8.78;100.00;98785.88;5055044;28;20103;-48
2023/10/31 06:13:35;;;;;;;31.58;13.68;;;;;;;8.80;100.00;98791.81;5046840;28;20033;-47
2023/10/31 06:16:01;;;;;;;53.95;17.90;;;;;;;8.81;100.00;98789.84;5048111;28;20071;-46
2023/10/31 06:18:28;;;;;;;35.63;17.30;;;;;;;8.81;100.00;98798.91;5046742;28;20041;-45
2023/10/31 06:20:56;;;;;;;35.75;15.13;;;;;;;8.82;100.00;98799.69;5047923;28;20043;-49
2023/10/31 06:23:22;;;;;;;29.85;13.98;;;;;;;8.79;100.00;98800.47;5047486;28;20041;-49
2023/10/31 06:25:49;;;;;;;23.88;12.82;;;;;;;8.76;100.00;98807.53;5047729;28;20095;-44
2023/10/31 06:28:16;;;;;;;26.90;13.63;;;;;;;8.75;100.00;98811.47;5047691;28;20056;-52
2023/10/31 06:30:43;;;;;;;32.08;13.35;;;;;;;8.75;100.00;98810.66;5047180;28;20049;-47
2023/10/31 06:33:11;;;;;;;32.35;15.52;;;;;;;8.74;100.00;98815.38;5046881;28;20045;-46
2023/10/31 06:35:38;;;;;;;33.78;15.05;;;;;;;8.75;100.00;98803.19;5037993;28;20047;-46
2023/10/31 06:38:05;;;;;;;28.55;13.65;;;;;;;8.74;100.00;98812.63;5055187;28;20092;-47
2023/10/31 06:40:32;;;;;;;34.55;15.65;;;;;;;8.74;100.00;98809.88;5047224;28;20090;-45
2023/10/31 06:42:59;;;;;;;26.27;14.27;;;;;;;8.74;100.00;98807.09;5047484;28;20045;-48
2023/10/31 06:45:26;;;;;;;27.98;14.07;;;;;;;8.75;100.00;98811.47;5046620;28;20045;-48
2023/10/31 06:47:53;;;;;;;27.85;13.23;;;;;;;8.74;100.00;98815.38;5050388;28;20666;-49
2023/10/31 06:50:20;;;;;;;24.02;11.57;;;;;;;8.74;100.00;98814.59;5058661;28;20136;-49
2023/10/31 06:52:47;;;;;;;22.35;11.55;;;;;;;8.73;100.00;98813.81;5050743;28;20052;-48
2023/10/31 06:55:14;;;;;;;24.48;12.15;;;;;;;8.72;100.00;98828.78;5050862;28;20045;-50
2023/10/31 06:57:40;;;;;;;26.80;13.02;;;;;;;8.73;100.00;98827.59;5050019;28;20128;-45
2023/10/31 07:00:08;;;;;;;25.48;12.27;;;;;;;8.73;100.00;98841.41;5050696;28;20043;-47
2023/10/31 07:02:35;;;;;;;21.35;12.32;;;;;;;8.72;100.00;98839.00;5050026;28;20049;-47
2023/10/31 07:05:03;;;;;;;24.58;10.93;;;;;;;8.73;100.00;98838.66;5050910;28;20114;-44
2023/10/31 07:07:30;;;;;;;20.15;12.13;;;;;;;8.73;100.00;98844.16;5037360;28;20138;-48
2023/10/31 07:09:57;;;;;;;22.17;11.32;;;;;;;8.75;100.00;98838.25;5049559;28;20062;-43
2023/10/31 07:12:24;;;;;;;25.60;11.75;;;;;;;8.75;100.00;98844.56;5050345;28;20056;-44
2023/10/31 07:14:51;;;;;;;23.33;11.25;;;;;;;8.77;100.00;98849.69;5049190;28;20033;-42
2023/10/31 07:17:18;;;;;;;21.65;11.35;;;;;;;8.77;100.00;98856.00;5056209;28;20641;-45
2023/10/31 07:19:44;;;;;;;23.95;11.48;;;;;;;8.79;100.00;98853.66;5049221;28;20071;-45
2023/10/31 07:22:11;;;;;;;20.92;11.45;;;;;;;8.79;100.00;98856.41;5048335;28;20033;-42
2023/10/31 07:24:38;;;;;;;17.52;10.57;;;;;;;8.78;100.00;98857.63;5049220;28;20052;-43
2023/10/31 07:27:06;;;;;;;16.60;9.27;;;;;;;8.78;100.00;98876.13;5028775;28;20046;-49
2023/10/31 07:29:32;;;;;;;20.88;9.40;;;;;;;8.76;100.00;98868.25;5049244;28;20041;-42
2023/10/31 07:31:59;;;;;;;13.20;9.13;;;;;;;8.76;100.00;98879.28;5050172;28;20045;-42
2023/10/31 07:34:27;;;;;;;18.98;9.00;;;;;;;8.76;100.00;98875.72;5049875;28;20107;-44
2023/10/31 07:36:54;;;;;;;14.20;7.88;;;;;;;8.77;100.00;98885.56;5050358;28;20036;-44
2023/10/31 07:39:21;;;;;;;15.77;8.38;;;;;;;8.73;100.00;98880.03;5049155;28;20039;-43
2023/10/31 07:41:48;;;;;;;17.92;10.30;;;;;;;8.73;100.00;98884.75;5050181;28;20064;-47
2023/10/31 07:44:14;;;;;;;12.02;7.55;;;;;;;8.73;100.00;98890.25;5024012;28;20058;-42
2023/10/31 07:46:41;;;;;;;15.65;8.13;;;;;;;8.73;100.00;98902.09;5050983;28;20132;-46
2023/10/31 07:49:08;;;;;;;13.10;7.80;;;;;;;8.74;100.00;98903.66;5049800;28;20068;-47
2023/10/31 07:51:35;;;;;;;13.45;8.18;;;;;;;8.74;100.00;98909.19;5056784;28;20143;-43
2023/10/31 07:54:01;;;;;;;12.77;7.25;;;;;;;8.73;100.00;98910.38;5049900;28;20099;-45
2023/10/31 07:56:29;;;;;;;14.02;7.57;;;;;;;8.72;100.00;98917.06;5048431;28;20049;-49
2023/10/31 07:58:56;;;;;;;15.23;7.80;;;;;;;8.71;100.00;98925.72;5047944;28;20124;-44
2023/10/31 08:01:23;;;;;;;12.10;8.57;;;;;;;8.69;100.00;98920.56;5049868;28;20045;-45
2023/10/31 08:03:49;;;;;;;13.00;7.43;;;;;;;8.66;100.00;98918.56;5049269;28;20486;-45
2023/10/31 08:06:17;;;;;;;12.52;7.03;;;;;;;8.65;100.00;98922.50;5051030;28;20077;-45
2023/10/31 08:08:43;;;;;;;13.05;7.75;;;;;;;8.65;100.00;98928.00;5049290;28;20037;-45
2023/10/31 08:11:10;;;;;;;11.82;7.15;;;;;;;8.68;100.00;98938.31;5031035;28;20143;-46
2023/10/31 08:13:38;;;;;;;11.73;6.22;;;;;;;8.68;100.00;98927.28;5048797;28;20041;-46
2023/10/31 08:16:06;;;;;;;10.98;7.03;;;;;;;8.69;100.00;98931.59;5055875;28;20043;-43
2023/10/31 08:18:33;;;;;;;10.98;6.35;;;;;;;8.73;100.00;98935.22;5048178;28;20033;-45
2023/10/31 08:21:01;;;;;;;8.52;6.22;;;;;;;8.77;100.00;98944.31;5046668;28;20052;-45
2023/10/31 08:23:31;;;;;;;9.55;6.55;;;;;;;8.81;100.00;98941.59;5046698;28;20120;-46
2023/10/31 08:25:58;;;;;;;11.15;6.15;;;;;;;8.84;100.00;98935.31;5027938;28;20041;-43
2023/10/31 08:28:25;;;;;;;8.43;5.78;;;;;;;8.86;100.00;98936.53;5044653;28;20049;-41
2023/10/31 08:30:52;;;;;;;11.80;6.05;;;;;;;8.88;100.00;98947.19;5046279;28;20068;-45
2023/10/31 08:33:18;;;;;;;9.10;6.20;;;;;;;8.91;100.00;98957.47;5051911;28;20437;-43
2023/10/31 08:35:47;;;;;;;8.80;6.50;;;;;;;8.92;100.00;98953.56;5046278;28;20044;-44
2023/10/31 08:38:14;;;;;;;10.18;6.10;;;;;;;8.91;100.00;98958.28;5047765;28;20473;-45
2023/10/31 08:40:52;;;;;;;11.82;6.47;;;;;;;8.93;100.00;98960.63;5045783;28;20624;-46
2023/10/31 08:43:19;;;;;;;13.23;5.68;;;;;;;8.93;100.00;98960.63;5046735;28;20141;-42
2023/10/31 08:45:46;;;;;;;11.77;5.53;;;;;;;8.93;100.00;98966.97;5044814;28;20044;-44
2023/10/31 08:48:15;;;;;;;10.23;5.38;;;;;;;8.93;100.00;98978.00;5036009;28;20142;-43
2023/10/31 08:50:42;;;;;;;6.45;4.88;;;;;;;8.93;100.00;98972.47;5046079;28;20124;-44
2023/10/31 08:53:09;;;;;;;9.48;5.05;;;;;;;8.92;100.00;98976.41;5046621;28;20045;-44
2023/10/31 08:55:36;;;;;;;10.98;4.75;;;;;;;8.92;100.00;98984.69;5046150;28;20140;-46
2023/10/31 08:58:03;;;;;;;8.63;4.82;;;;;;;8.93;100.00;98972.47;5047286;28;20041;-46
2023/10/31 09:00:30;;;;;;;7.97;4.18;;;;;;;8.97;100.00;98981.63;5045686;28;20044;-46
2023/10/31 09:02:57;;;;;;;8.88;4.90;;;;;;;8.99;100.00;98975.69;5046063;28;20049;-44
2023/10/31 09:05:24;;;;;;;8.25;4.47;;;;;;;9.01;100.00;98978.88;5045963;28;20033;-44
2023/10/31 09:07:51;;;;;;;7.65;4.80;;;;;;;9.03;100.00;98982.84;5046153;28;20399;-42
2023/10/31 09:10:17;;;;;;;6.50;4.13;;;;;;;9.07;100.00;98969.09;5045806;28;20041;-44
2023/10/31 09:12:46;;;;;;;9.07;4.68;;;;;;;9.07;100.00;98971.84;5044946;28;20064;-43
2023/10/31 09:15:13;;;;;;;6.75;4.63;;;;;;;9.10;100.00;98977.41;5031266;28;20436;-42
2023/10/31 09:17:40;;;;;;;5.85;4.47;;;;;;;9.16;100.00;98975.09;5037142;28;20059;-41
2023/10/31 09:20:08;;;;;;;7.32;4.35;;;;;;;9.23;100.00;98977.94;5044544;28;20041;-43
2023/10/31 09:22:35;;;;;;;4.93;3.65;;;;;;;9.31;100.00;98987.09;5046370;28;20044;-43
2023/10/31 09:25:02;;;;;;;5.18;3.92;;;;;;;9.40;100.00;98982.06;5046502;28;20045;-43
2023/10/31 09:27:29;;;;;;;5.15;3.53;;;;;;;9.49;100.00;98982.53;5046033;28;20049;-44
2023/10/31 09:29:56;;;;;;;5.72;4.40;;;;;;;9.56;100.00;98977.84;5042373;28;20041;-42
2023/10/31 09:32:22;;;;;;;4.80;3.20;;;;;;;9.60;100.00;98988.94;5045861;28;20131;-44
2023/10/31 09:34:49;;;;;;;6.15;3.65;;;;;;;9.63;100.00;98993.72;5045167;28;20059;-47
2023/10/31 09:37:16;;;;;;;6.13;3.20;;;;;;;9.68;100.00;98988.63;5046343;28;20045;-42
2023/10/31 09:39:43;;;;;;;4.00;3.00;;;;;;;9.75;100.00;98998.94;5046298;28;20686;-43
2023/10/31 09:42:10;;;;;;;4.57;3.42;;;;;;;9.78;100.00;98995.41;5045627;28;20521;-42
2023/10/31 09:44:37;;;;;;;4.50;2.92;;;;;;;9.81;100.00;99005.72;5047522;28;20096;-41
2023/10/31 09:47:06;;;;;;;3.83;2.58;;;;;;;9.84;100.00;99004.94;5045651;28;20428;-43
2023/10/31 09:49:34;;;;;;;3.72;2.60;;;;;;;9.85;100.00;99012.03;5044890;28;20495;-45
2023/10/31 09:52:01;;;;;;;3.55;3.20;;;;;;;9.88;100.00;99004.97;5046840;28;20414;-46
2023/10/31 09:54:28;;;;;;;4.40;3.08;;;;;;;9.89;100.00;99007.34;5037871;28;20033;-45
2023/10/31 09:56:55;;;;;;;3.92;2.60;;;;;;;9.99;100.00;99012.16;5044694;28;20115;-42
2023/10/31 09:59:22;;;;;;;4.15;2.92;;;;;;;10.09;100.00;99007.88;5046079;28;20045;-46
2023/10/31 10:01:48;;;;;;;4.13;3.17;;;;;;;10.17;100.00;99010.34;5045119;28;20493;-43
2023/10/31 10:04:17;;;;;;;4.28;2.72;;;;;;;10.24;100.00;99007.66;5045345;28;21089;-46
2023/10/31 10:06:51;;;;;;;4.90;2.88;;;;;;;10.30;100.00;99008.84;5045990;28;20037;-45
2023/10/31 10:09:18;;;;;;;3.83;2.47;;;;;;;10.32;100.00;99016.78;5045913;28;20513;-43
2023/10/31 10:11:45;;;;;;;5.38;2.53;;;;;;;10.33;100.00;99019.16;5045413;28;20043;-43
2023/10/31 10:14:12;;;;;;;3.08;1.90;;;;;;;10.31;100.00;99013.22;5045405;28;20037;-43
2023/10/31 10:16:39;;;;;;;4.13;2.28;;;;;;;10.31;100.00;99018.75;5046355;28;20044;-43
2023/10/31 10:19:17;;;;;;;5.53;2.40;;;;;;;10.34;100.00;99006.13;5045695;28;20136;-44
2023/10/31 10:21:51;;;;;;;4.18;2.15;;;;;;;10.43;100.00;99020.44;5045813;28;20406;-48
2023/10/31 10:24:20;;;;;;;4.18;1.77;;;;;;;10.51;100.00;99018.50;5031397;28;20171;-42
2023/10/31 10:26:47;;;;;;;6.80;2.83;;;;;;;10.61;100.00;99026.06;5049575;28;20033;-47
2023/10/31 10:29:15;;;;;;;4.28;2.42;;;;;;;10.71;100.00;99025.31;5048707;28;20063;-48
2023/10/31 10:31:42;;;;;;;4.18;1.98;;;;;;;10.78;100.00;99030.88;5047700;28;20402;-47
2023/10/31 10:34:09;;;;;;;2.05;1.55;;;;;;;10.82;100.00;99023.38;5050847;28;20084;-48
2023/10/31 10:36:36;;;;;;;1.95;1.60;;;;;;;10.76;100.00;99020.19;5048994;28;20033;-43
2023/10/31 10:39:03;;;;;;;2.05;1.85;;;;;;;10.67;100.00;99030.03;5048507;28;20044;-49
2023/10/31 10:41:35;;;;;;;2.00;1.60;;;;;;;10.51;100.00;99027.56;5049429;28;20041;-45
2023/10/31 10:44:06;;;;;;;4.63;1.73;;;;;;;10.39;100.00;99020.38;5049909;28;20059;-49
2023/10/31 10:46:35;;;;;;;2.42;1.30;;;;;;;10.28;100.00;99025.06;5049284;28;20615;-44
2023/10/31 10:49:07;;;;;;;4.72;1.48;;;;;;;10.19;100.00;99018.28;5048422;28;20051;-46
2023/10/31 10:51:58;;;;;;;2.40;1.70;;;;;;;10.14;100.00;99032.47;5049126;28;20040;-46
2023/10/31 10:54:33;;;;;;;1.80;1.52;;;;;;;10.07;100.00;99035.13;5048273;28;20130;-47
2023/10/31 10:57:29;;;;;;;2.58;1.60;;;;;;;10.03;100.00;99031.56;5049053;28;20406;-49
2023/10/31 11:00:01;;;;;;;3.28;1.42;;;;;;;9.98;100.00;99032.69;5046251;28;20048;-50
2023/10/31 11:02:29;;;;;;;3.70;2.20;;;;;;;9.97;100.00;99030.31;5048130;28;20053;-48
2023/10/31 11:04:58;;;;;;;3.35;3.05;;;;;;;9.95;100.00;99027.94;5048763;28;20052;-52
2023/10/31 11:07:27;;;;;;;2.28;1.42;;;;;;;9.96;100.00;99025.94;5030800;28;20131;-45
2023/10/31 11:09:56;;;;;;;5.43;1.55;;;;;;;9.92;100.00;99034.22;5047546;28;20041;-43
2023/10/31 11:12:23;;;;;;;2.40;1.73;;;;;;;9.91;100.00;99029.88;5035555;28;20041;-43
2023/10/31 11:14:50;;;;;;;2.63;1.58;;;;;;;9.92;100.00;99025.94;5047901;28;20094;-44
2023/10/31 11:17:27;;;;;;;7.00;1.33;;;;;;;9.92;100.00;99031.47;5049082;28;20132;-46
2023/10/31 11:19:55;;;;;;;2.55;1.38;;;;;;;9.96;100.00;99028.72;5044998;28;20059;-47
2023/10/31 11:22:23;;;;;;;2.55;1.45;;;;;;;9.97;100.00;99036.66;5048546;28;20057;-46